Terminal Aerodrome Forecast
Issued by NWS

Home | Current Version | Previous Version | Text Only | Print | Product List | Glossary On
Versions: 1 2 3 4 5 6 7 8 9 10 11 12 13 14 15 16 17 18 19 20 21 22 23 24 25 26 27 28 29 30 31 32 33 34 35 36 37 38 39 40 41 42 43 44 45 46 47 48 49 50
000
FTUS44 KHGX 191928 AAB
TAFIAH
TAF AMD
KIAH 191928Z 1919/2024 10008KT P6SM BKN015 BKN060 BKN120
     FM192000 12008KT P6SM VCSH SCT025 SCT035 BKN120
     FM200000 10005KT P6SM SCT035 BKN250
     FM200600 08004KT P6SM SCT025
      TEMPO 2009/2013 4SM BR FEW010 BKN025
     FM201500 08008KT P6SM SCT025
     FM202000 12009KT P6SM SCT045=

USA.gov is the U.S. government's official web portal to all federal, state and local government web resources and services.